createdAt,value
2023-03-06T00:00:54.205Z,97438.03
2023-03-06T00:03:22.449Z,97441.25
2023-03-06T00:05:49.612Z,97434.41
2023-03-06T00:08:16.451Z,97436.03
2023-03-06T00:10:43.331Z,97441.94
2023-03-06T00:13:14.220Z,97439.34
2023-03-06T00:15:41.596Z,97436.75
2023-03-06T00:18:08.807Z,97444.31
2023-03-06T00:20:36.845Z,97441.72
2023-03-06T00:23:04.406Z,97443.34
2023-03-06T00:25:31.148Z,97446.66
2023-03-06T00:27:57.939Z,97442.41
2023-03-06T00:30:25.462Z,97448.25
2023-03-06T00:32:53.355Z,97438.94
2023-03-06T00:35:20.732Z,97440.56
2023-03-06T00:37:47.540Z,97448.09
2023-03-06T00:40:17.129Z,97451.53
2023-03-06T00:42:44.485Z,97442.22
2023-03-06T00:45:11.946Z,97442.16
2023-03-06T00:47:38.973Z,97453.16
2023-03-06T00:50:06.132Z,97435.44
2023-03-06T00:52:33.034Z,97438.88
2023-03-06T00:54:59.885Z,97441.41
2023-03-06T00:57:26.633Z,97439.75
2023-03-06T00:59:53.362Z,97436.47
2023-03-06T01:02:20.191Z,97434.78
2023-03-06T01:04:46.939Z,97434.84
2023-03-06T01:07:13.703Z,97429.78
2023-03-06T01:09:40.433Z,97439.97
2023-03-06T01:12:07.586Z,97436.63
2023-03-06T01:14:34.555Z,97437.44
2023-03-06T01:17:01.298Z,97433.25
2023-03-06T01:19:28.100Z,97440.03
2023-03-06T01:21:54.953Z,97443.44
2023-03-06T01:24:23.987Z,97442.59
2023-03-06T01:26:50.747Z,97439.19
2023-03-06T01:29:17.617Z,97441.66
2023-03-06T01:31:44.459Z,97451.72
2023-03-06T01:34:11.258Z,97444.94
2023-03-06T01:36:38.040Z,97450.78
2023-03-06T01:39:04.934Z,97444.88
2023-03-06T01:41:32.763Z,97441.53
2023-03-06T01:43:59.794Z,97446.56
2023-03-06T01:46:30.158Z,97449.09
2023-03-06T01:49:08.411Z,97451.59
2023-03-06T01:51:39.703Z,97454.94
2023-03-06T01:54:14.988Z,97457.44
2023-03-06T01:56:46.380Z,97453.97
2023-03-06T01:59:13.567Z,97458.97
2023-03-06T02:01:41.651Z,97456.44
2023-03-06T02:04:09.959Z,97460.72
2023-03-06T02:06:39.695Z,97451.41
2023-03-06T02:09:07.086Z,97458.22
2023-03-06T02:11:33.904Z,97456.53
2023-03-06T02:14:01.323Z,97458.25
2023-03-06T02:16:31.167Z,97458.28
2023-03-06T02:19:00.625Z,97454.94
2023-03-06T02:21:33.027Z,97458.22
2023-03-06T02:24:29.517Z,97458.22
2023-03-06T02:26:57.862Z,97464.94
2023-03-06T02:29:27.649Z,97459.75
2023-03-06T02:31:54.554Z,97458.06
2023-03-06T02:34:21.267Z,97457.13
2023-03-06T02:36:52.645Z,97463.03
2023-03-06T02:39:25.306Z,97457.97
2023-03-06T02:41:52.171Z,97457.97
2023-03-06T02:44:19.165Z,97453.75
2023-03-06T02:46:45.919Z,97458.03
2023-03-06T02:49:12.644Z,97456.31
2023-03-06T02:51:39.437Z,97457.16
2023-03-06T02:54:06.447Z,97465.53
2023-03-06T02:56:33.208Z,97458.84
2023-03-06T02:58:59.950Z,97463.09
2023-03-06T03:01:26.773Z,97458.88
2023-03-06T03:03:53.600Z,97456.41
2023-03-06T03:06:20.412Z,97454.69
2023-03-06T03:08:47.198Z,97451.38
2023-03-06T03:11:14.140Z,97462.41
2023-03-06T03:13:40.856Z,97448.06
2023-03-06T03:16:09.776Z,97456.53
2023-03-06T03:18:36.611Z,97455.72
2023-03-06T03:21:07.860Z,97453.16
2023-03-06T03:23:34.687Z,97459.78
2023-03-06T03:26:13.991Z,97456.53
2023-03-06T03:28:40.724Z,97464.09
2023-03-06T03:31:10.081Z,97454.84
2023-03-06T03:33:37.314Z,97459.03
2023-03-06T03:36:06.045Z,97456.53
2023-03-06T03:38:34.097Z,97464.16
2023-03-06T03:41:02.113Z,97458.22
2023-03-06T03:43:28.907Z,97463.28
2023-03-06T03:45:55.652Z,97461.50
2023-03-06T03:48:22.469Z,97466.56
2023-03-06T03:50:49.353Z,97467.34
2023-03-06T03:53:16.093Z,97471.53
2023-03-06T03:55:42.944Z,97475.75
2023-03-06T03:58:09.739Z,97468.97
2023-03-06T04:00:36.463Z,97468.09
2023-03-06T04:03:03.349Z,97471.41
2023-03-06T04:05:30.187Z,97471.34
2023-03-06T04:07:56.915Z,97462.94
2023-03-06T04:10:23.670Z,97462.13
2023-03-06T04:12:50.446Z,97469.75
2023-03-06T04:15:17.235Z,97471.47
2023-03-06T04:17:43.967Z,97459.63
2023-03-06T04:20:11.412Z,97462.16
2023-03-06T04:22:38.164Z,97463.81
2023-03-06T04:25:05.335Z,97479.88
2023-03-06T04:27:32.183Z,97464.69
2023-03-06T04:30:01.553Z,97466.34
2023-03-06T04:32:31.330Z,97472.31
2023-03-06T04:34:58.187Z,97467.31
2023-03-06T04:37:27.029Z,97463.09
2023-03-06T04:39:53.809Z,97461.34
2023-03-06T04:42:20.588Z,97470.66
2023-03-06T04:44:47.388Z,97463.97
2023-03-06T04:47:14.338Z,97468.97
2023-03-06T04:49:41.162Z,97465.59
2023-03-06T04:52:08.344Z,97466.41
2023-03-06T04:54:35.179Z,97468.03
2023-03-06T04:57:02.017Z,97461.31
2023-03-06T04:59:28.749Z,97474.00
2023-03-06T05:01:55.759Z,97464.81
2023-03-06T05:04:22.679Z,97471.56
2023-03-06T05:06:49.632Z,97469.06
2023-03-06T05:09:16.822Z,97473.28
2023-03-06T05:11:43.534Z,97474.13
2023-03-06T05:14:10.326Z,97469.09
2023-03-06T05:16:37.139Z,97479.38
2023-03-06T05:19:04.018Z,97484.59
2023-03-06T05:21:30.768Z,97480.34
2023-03-06T05:23:57.603Z,97483.75
2023-03-06T05:26:24.401Z,97482.13
2023-03-06T05:28:51.208Z,97476.25
2023-03-06T05:31:18.126Z,97475.41
2023-03-06T05:33:44.959Z,97476.38
2023-03-06T05:36:11.807Z,97479.06
2023-03-06T05:38:38.694Z,97483.31
2023-03-06T05:41:05.700Z,97480.78
2023-03-06T05:43:32.535Z,97488.28
2023-03-06T05:46:04.117Z,97489.16
2023-03-06T05:48:31.115Z,97506.00
2023-03-06T05:50:59.495Z,97499.22
2023-03-06T05:53:26.908Z,97497.47
2023-03-06T05:56:11.891Z,97494.28
2023-03-06T05:58:38.911Z,97502.66
2023-03-06T06:01:18.016Z,97498.47
2023-03-06T06:03:45.001Z,97496.81
2023-03-06T06:06:13.873Z,97498.63
2023-03-06T06:08:41.354Z,97496.94
2023-03-06T06:11:10.576Z,97501.34
2023-03-06T06:13:38.558Z,97494.59
2023-03-06T06:16:15.897Z,97503.06
2023-03-06T06:18:43.592Z,97499.56
2023-03-06T06:21:13.167Z,97497.97
2023-03-06T06:23:40.148Z,97497.13
2023-03-06T06:26:08.850Z,97492.94
2023-03-06T06:28:36.226Z,97497.28
2023-03-06T06:31:09.696Z,97498.97
2023-03-06T06:33:36.581Z,97496.44
2023-03-06T06:36:03.538Z,97497.25
2023-03-06T06:38:30.282Z,97510.81
2023-03-06T06:41:30.687Z,97513.44
2023-03-06T06:43:43.807Z,97513.50
2023-03-06T06:46:47.093Z,97511.94
2023-03-06T06:48:57.318Z,97516.25
2023-03-06T06:51:24.107Z,97508.69
2023-03-06T06:53:54.066Z,97515.47
2023-03-06T06:56:20.821Z,97522.13
2023-03-06T06:58:49.588Z,97511.16
2023-03-06T07:01:16.601Z,97531.50
2023-03-06T07:03:43.460Z,97521.44
2023-03-06T07:06:10.593Z,97513.00
2023-03-06T07:08:37.631Z,97519.03
2023-03-06T07:11:14.090Z,97515.72
2023-03-06T07:13:40.925Z,97525.84
2023-03-06T07:16:08.011Z,97525.75
2023-03-06T07:18:36.576Z,97528.28
2023-03-06T07:21:03.938Z,97514.69
2023-03-06T07:23:31.211Z,97520.81
2023-03-06T07:25:58.472Z,97517.38
2023-03-06T07:28:25.221Z,97519.81
2023-03-06T07:30:52.039Z,97526.41
2023-03-06T07:33:18.814Z,97522.28
2023-03-06T07:35:45.642Z,97520.06
2023-03-06T07:38:12.576Z,97526.09
2023-03-06T07:40:39.391Z,97527.09
2023-03-06T07:43:18.614Z,97527.97
2023-03-06T07:45:47.061Z,97529.72
2023-03-06T07:48:14.838Z,97538.94
2023-03-06T07:50:42.052Z,97544.84
2023-03-06T07:53:10.784Z,97541.34
2023-03-06T07:55:40.506Z,97546.44
2023-03-06T07:58:07.258Z,97549.88
2023-03-06T08:00:34.385Z,97550.75
2023-03-06T08:03:01.364Z,97544.84
2023-03-06T08:05:28.168Z,97542.34
2023-03-06T08:07:54.919Z,97546.59
2023-03-06T08:10:21.707Z,97554.88
2023-03-06T08:12:48.475Z,97544.00
2023-03-06T08:15:15.323Z,97536.59
2023-03-06T08:17:42.103Z,97556.31
2023-03-06T08:20:10.448Z,97544.31
2023-03-06T08:22:37.830Z,97542.44
2023-03-06T08:25:06.046Z,97553.50
2023-03-06T08:27:34.289Z,97550.06
2023-03-06T08:30:01.600Z,97543.41
2023-03-06T08:32:31.212Z,97545.13
2023-03-06T08:34:57.995Z,97547.72
2023-03-06T08:37:24.934Z,97546.84
2023-03-06T08:39:51.784Z,97550.22
2023-03-06T08:42:18.617Z,97563.81
2023-03-06T08:44:45.497Z,97548.53
2023-03-06T08:47:12.357Z,97556.16
2023-03-06T08:49:39.788Z,97555.25
2023-03-06T08:52:08.133Z,97562.88
2023-03-06T08:54:36.434Z,97556.97
2023-03-06T08:57:03.602Z,97560.34
2023-03-06T08:59:30.361Z,97552.94
2023-03-06T09:01:57.231Z,97555.63
2023-03-06T09:04:24.102Z,97554.13
2023-03-06T09:06:50.923Z,97550.78
2023-03-06T09:09:17.778Z,97569.47
2023-03-06T09:11:44.720Z,97567.63
2023-03-06T09:14:11.584Z,97560.66
2023-03-06T09:16:38.645Z,97557.19
2023-03-06T09:19:05.550Z,97571.53
2023-03-06T09:21:32.344Z,97564.69
2023-03-06T09:23:59.464Z,97561.31
2023-03-06T09:26:39.568Z,97559.56
2023-03-06T09:29:12.558Z,97565.50
2023-03-06T09:31:39.350Z,97571.53
2023-03-06T09:34:06.234Z,97571.53
2023-03-06T09:36:42.800Z,97586.00
2023-03-06T09:39:16.237Z,97579.19
2023-03-06T09:41:43.174Z,97573.94
2023-03-06T09:44:20.215Z,97585.13
2023-03-06T09:47:08.404Z,97594.47
2023-03-06T09:49:44.298Z,97585.16
2023-03-06T09:52:31.525Z,97589.34
2023-03-06T09:55:24.126Z,97587.72
2023-03-06T09:58:19.854Z,97586.09
2023-03-06T10:00:58.856Z,97593.81
2023-03-06T10:03:36.914Z,97579.47
2023-03-06T10:06:03.762Z,97581.13
2023-03-06T10:09:02.782Z,97584.56
2023-03-06T10:11:42.695Z,97589.72
2023-03-06T10:14:44.041Z,97593.06
2023-03-06T10:17:22.378Z,97589.63
2023-03-06T10:19:49.936Z,97589.63
2023-03-06T10:22:37.087Z,97595.59
2023-03-06T10:25:22.101Z,97594.59
2023-03-06T10:28:02.078Z,97587.13
2023-03-06T10:30:56.942Z,97583.81
2023-03-06T10:33:44.947Z,97588.19
2023-03-06T10:36:19.314Z,97579.00
2023-03-06T10:38:49.894Z,97586.69
2023-03-06T10:41:21.448Z,97589.16
2023-03-06T10:44:09.426Z,97583.16
2023-03-06T10:46:44.306Z,97583.16
2023-03-06T10:49:23.562Z,97587.38
2023-03-06T10:52:09.694Z,97594.97
2023-03-06T10:54:39.446Z,97605.00
2023-03-06T10:57:28.619Z,97603.16
2023-03-06T11:00:22.831Z,97599.66
2023-03-06T11:03:15.956Z,97602.97
2023-03-06T11:06:10.837Z,97605.38
2023-03-06T11:08:40.251Z,97595.19
2023-03-06T11:11:11.964Z,97601.22
2023-03-06T11:13:40.630Z,97604.63
2023-03-06T11:16:13.622Z,97603.03
2023-03-06T11:18:42.817Z,97597.16
2023-03-06T11:21:36.359Z,97620.16
2023-03-06T11:24:11.952Z,97613.25
2023-03-06T11:26:45.870Z,97615.69
2023-03-06T11:29:36.330Z,97610.69
2023-03-06T11:32:57.682Z,97599.94
2023-03-06T11:35:35.271Z,97601.06
2023-03-06T11:38:02.062Z,97603.75
2023-03-06T11:40:44.941Z,97579.25
2023-03-06T11:43:42.388Z,97586.13
2023-03-06T11:46:23.684Z,97564.84
2023-03-06T11:49:13.802Z,97563.16
2023-03-06T11:51:47.707Z,97563.97
2023-03-06T11:54:14.572Z,97546.09
2023-03-06T11:56:57.647Z,97551.25
2023-03-06T12:00:08.680Z,97590.38
2023-03-06T12:02:58.981Z,97614.00
2023-03-06T12:06:02.111Z,97612.19
2023-03-06T12:08:47.053Z,97629.84
2023-03-06T12:11:30.703Z,97626.38
2023-03-06T12:14:13.452Z,97618.72
2023-03-06T12:16:46.258Z,97625.53
2023-03-06T12:19:31.624Z,97620.31
2023-03-06T12:22:13.918Z,97637.28
2023-03-06T12:24:59.403Z,97654.19
2023-03-06T12:27:40.821Z,97653.69
2023-03-06T12:30:36.261Z,97660.03
2023-03-06T12:33:24.694Z,97659.81
2023-03-06T12:36:29.046Z,97649.38
2023-03-06T12:39:08.488Z,97639.91
2023-03-06T12:41:44.115Z,97655.97
2023-03-06T12:44:35.612Z,97641.78
2023-03-06T12:47:08.210Z,97640.19
2023-03-06T12:49:38.808Z,97643.81
2023-03-06T12:52:08.258Z,97638.00
2023-03-06T12:54:39.028Z,97642.31
2023-03-06T12:57:08.596Z,97645.84
2023-03-06T12:59:49.347Z,97652.66
2023-03-06T13:02:40.368Z,97652.47
2023-03-06T13:05:25.603Z,97668.22
2023-03-06T13:08:09.975Z,97698.25
2023-03-06T13:10:39.970Z,97690.66
2023-03-06T13:13:32.337Z,97702.31
2023-03-06T13:16:11.785Z,97675.69
2023-03-06T13:18:38.582Z,97663.88
2023-03-06T13:21:05.517Z,97663.53
2023-03-06T13:23:32.354Z,97650.72
2023-03-06T13:26:01.029Z,97651.53
2023-03-06T13:28:50.092Z,97648.63
2023-03-06T13:31:54.970Z,97661.38
2023-03-06T13:34:37.330Z,97675.59
2023-03-06T13:37:25.100Z,97660.31
2023-03-06T13:40:01.626Z,97678.94
2023-03-06T13:42:35.271Z,97673.03
2023-03-06T13:45:15.751Z,97673.25
2023-03-06T13:48:21.432Z,97672.41
2023-03-06T13:52:12.853Z,97665.53
2023-03-06T13:55:00.942Z,97666.56
2023-03-06T13:57:38.761Z,97676.00
2023-03-06T14:00:17.909Z,97670.88
2023-03-06T14:02:54.827Z,97679.47
2023-03-06T14:05:22.282Z,97683.56
2023-03-06T14:08:06.512Z,97690.31
2023-03-06T14:10:35.740Z,97684.25
2023-03-06T14:13:30.057Z,97688.69
2023-03-06T14:15:59.133Z,97682.78
2023-03-06T14:18:38.483Z,97685.63
2023-03-06T14:21:13.469Z,97685.72
2023-03-06T14:23:46.446Z,97684.66
2023-03-06T14:26:15.389Z,97696.41
2023-03-06T14:28:44.273Z,97701.31
2023-03-06T14:31:18.093Z,97695.25
2023-03-06T14:33:59.879Z,97701.09
2023-03-06T14:36:32.102Z,97704.34
2023-03-06T14:39:04.288Z,97705.06
2023-03-06T14:41:33.735Z,97710.00
2023-03-06T14:44:19.654Z,97714.31
2023-03-06T14:46:50.763Z,97721.69
2023-03-06T14:49:20.637Z,97724.19
2023-03-06T14:51:54.051Z,97727.53
2023-03-06T14:54:26.181Z,97739.31
2023-03-06T14:56:59.168Z,97739.19
2023-03-06T14:59:29.454Z,97735.72
2023-03-06T15:02:03.804Z,97733.22
2023-03-06T15:05:35.404Z,97738.28
2023-03-06T15:08:06.976Z,97750.78
2023-03-06T15:10:38.756Z,97750.56
2023-03-06T15:13:31.562Z,97745.56
2023-03-06T15:16:08.040Z,97764.94
2023-03-06T15:18:38.889Z,97751.19
2023-03-06T15:21:27.478Z,97756.28
2023-03-06T15:23:56.841Z,97766.38
2023-03-06T15:26:31.755Z,97765.41
2023-03-06T15:29:18.659Z,97769.66
2023-03-06T15:31:46.186Z,97770.41
2023-03-06T15:34:12.994Z,97769.53
2023-03-06T15:36:41.248Z,97776.41
2023-03-06T15:39:30.286Z,97778.16
2023-03-06T15:42:07.667Z,97777.25
2023-03-06T15:44:34.992Z,97782.16
2023-03-06T15:47:09.510Z,97780.44
2023-03-06T15:49:38.179Z,97797.31
2023-03-06T15:52:06.500Z,97795.59
2023-03-06T15:54:33.382Z,97785.44
2023-03-06T15:57:00.927Z,97792.31
2023-03-06T15:59:33.309Z,97805.00
2023-03-06T16:02:03.987Z,97797.38
2023-03-06T16:04:30.957Z,97807.56
2023-03-06T16:06:57.701Z,97802.38
2023-03-06T16:09:24.561Z,97808.31
2023-03-06T16:11:51.433Z,97807.50
2023-03-06T16:14:21.470Z,97820.16
2023-03-06T16:16:49.354Z,97826.91
2023-03-06T16:19:29.249Z,97826.03
2023-03-06T16:21:56.924Z,97834.41
2023-03-06T16:24:26.107Z,97831.81
2023-03-06T16:26:54.979Z,97846.16
2023-03-06T16:29:26.685Z,97840.28
2023-03-06T16:31:55.309Z,97844.47
2023-03-06T16:34:22.606Z,97852.00
2023-03-06T16:36:50.249Z,97841.81
2023-03-06T16:39:19.491Z,97851.13
2023-03-06T16:41:46.628Z,97862.88
2023-03-06T16:44:13.550Z,97856.97
2023-03-06T16:46:45.913Z,97862.06
2023-03-06T16:49:24.828Z,97857.72
2023-03-06T16:51:52.454Z,97860.09
2023-03-06T16:54:19.842Z,97871.94
2023-03-06T16:56:46.849Z,97865.13
2023-03-06T16:59:13.673Z,97873.56
2023-03-06T17:01:43.275Z,97866.78
2023-03-06T17:04:10.801Z,97867.59
2023-03-06T17:06:38.610Z,97869.31
2023-03-06T17:09:05.667Z,97873.59
2023-03-06T17:11:32.633Z,97874.47
2023-03-06T17:13:59.636Z,97885.47
2023-03-06T17:16:26.646Z,97874.41
2023-03-06T17:18:55.126Z,97887.09
2023-03-06T17:21:22.043Z,97892.00
2023-03-06T17:23:50.802Z,97883.53
2023-03-06T17:26:19.116Z,97880.97
2023-03-06T17:28:47.080Z,97873.31
2023-03-06T17:31:27.629Z,97876.81
2023-03-06T17:33:59.133Z,97887.75
2023-03-06T17:36:27.931Z,97902.13
2023-03-06T17:38:58.952Z,97900.47
2023-03-06T17:41:26.104Z,97902.97
2023-03-06T17:43:55.741Z,97911.38
2023-03-06T17:46:22.591Z,97906.28
2023-03-06T17:48:49.489Z,97902.88
2023-03-06T17:51:16.397Z,97904.50
2023-03-06T17:53:43.209Z,97907.84
2023-03-06T17:56:12.802Z,97910.47
2023-03-06T17:58:39.545Z,97912.09
2023-03-06T18:01:32.749Z,97909.63
2023-03-06T18:03:59.649Z,97915.41
2023-03-06T18:06:30.105Z,97915.41
2023-03-06T18:08:56.989Z,97922.97
2023-03-06T18:11:24.172Z,97914.41
2023-03-06T18:13:51.303Z,97921.13
2023-03-06T18:16:21.126Z,97923.72
2023-03-06T18:18:51.013Z,97929.63
2023-03-06T18:21:17.866Z,97928.78
2023-03-06T18:23:44.826Z,97923.72
2023-03-06T18:26:15.655Z,97933.94
2023-03-06T18:28:45.056Z,97934.69
2023-03-06T18:31:16.027Z,97926.41
2023-03-06T18:33:43.099Z,97928.81
2023-03-06T18:36:09.984Z,97931.28
2023-03-06T18:38:37.966Z,97938.00
2023-03-06T18:41:09.903Z,97939.63
2023-03-06T18:43:38.404Z,97933.69
2023-03-06T18:46:06.183Z,97936.13
2023-03-06T18:48:33.166Z,97942.91
2023-03-06T18:51:05.075Z,97937.03
2023-03-06T18:53:31.947Z,97936.94
2023-03-06T18:55:58.848Z,97947.91
2023-03-06T18:58:25.767Z,97947.84
2023-03-06T19:00:58.316Z,97951.13
2023-03-06T19:03:26.029Z,97947.63
2023-03-06T19:05:52.990Z,97952.59
2023-03-06T19:08:19.875Z,97963.59
2023-03-06T19:10:47.307Z,97963.44
2023-03-06T19:13:14.816Z,97956.66
2023-03-06T19:15:49.188Z,97955.72
2023-03-06T19:18:17.993Z,97957.38
2023-03-06T19:20:45.366Z,97960.88
2023-03-06T19:23:12.195Z,97954.03
2023-03-06T19:25:39.258Z,97964.06
2023-03-06T19:28:06.268Z,97956.38
2023-03-06T19:30:33.045Z,97957.31
2023-03-06T19:33:00.044Z,97960.75
2023-03-06T19:35:27.216Z,97960.66
2023-03-06T19:37:54.051Z,97974.13
2023-03-06T19:40:21.008Z,97970.69
2023-03-06T19:42:47.938Z,97975.72
2023-03-06T19:45:14.745Z,97968.91
2023-03-06T19:47:41.520Z,97971.44
2023-03-06T19:50:09.464Z,97975.63
2023-03-06T19:52:38.374Z,97975.63
2023-03-06T19:55:06.064Z,97978.16
2023-03-06T19:57:32.880Z,97975.66
2023-03-06T19:59:59.621Z,97979.91
2023-03-06T20:02:27.270Z,97972.44
2023-03-06T20:04:55.070Z,97977.56
2023-03-06T20:07:21.968Z,97976.81
2023-03-06T20:09:48.730Z,97971.81
2023-03-06T20:12:16.330Z,97984.66
2023-03-06T20:14:45.823Z,97983.66
2023-03-06T20:17:12.566Z,97975.28
2023-03-06T20:19:39.487Z,97971.91
2023-03-06T20:22:06.450Z,97990.50
2023-03-06T20:24:33.202Z,97970.28
2023-03-06T20:26:59.960Z,97983.84
2023-03-06T20:29:28.419Z,97982.25
2023-03-06T20:31:57.291Z,97988.16
2023-03-06T20:34:25.489Z,97979.75
2023-03-06T20:36:52.858Z,97978.09
2023-03-06T20:39:24.266Z,97984.78
2023-03-06T20:41:51.007Z,97985.69
2023-03-06T20:44:18.949Z,97986.59
2023-03-06T20:46:46.152Z,97982.41
2023-03-06T20:49:13.520Z,97987.41
2023-03-06T20:51:40.871Z,97986.50
2023-03-06T20:54:11.061Z,97989.84
2023-03-06T20:56:39.652Z,97989.13
2023-03-06T20:59:08.421Z,98000.16
2023-03-06T21:01:38.426Z,97988.25
2023-03-06T21:04:05.387Z,97979.81
2023-03-06T21:06:33.095Z,97987.34
2023-03-06T21:09:01.104Z,97987.41
2023-03-06T21:11:28.868Z,97988.28
2023-03-06T21:13:56.076Z,97978.16
2023-03-06T21:16:25.840Z,97982.38
2023-03-06T21:18:54.811Z,97986.44
2023-03-06T21:21:25.047Z,97988.97
2023-03-06T21:23:52.311Z,97993.22
2023-03-06T21:26:21.484Z,97986.50
2023-03-06T21:28:48.344Z,97994.88
2023-03-06T21:31:16.963Z,97982.88
2023-03-06T21:33:44.324Z,97986.13
2023-03-06T21:36:11.231Z,97993.66
2023-03-06T21:38:38.384Z,97986.06
2023-03-06T21:41:10.818Z,97988.66
2023-03-06T21:43:37.881Z,97994.38
2023-03-06T21:46:05.046Z,97999.38
2023-03-06T21:48:32.420Z,98006.84
2023-03-06T21:51:13.429Z,98001.03
2023-03-06T21:53:42.652Z,98006.94
2023-03-06T21:56:10.748Z,98010.19
2023-03-06T21:58:37.745Z,98006.00
2023-03-06T22:01:13.612Z,98002.59
2023-03-06T22:03:40.522Z,98010.03
2023-03-06T22:06:10.374Z,98007.41
2023-03-06T22:08:37.114Z,98006.56
2023-03-06T22:11:12.000Z,98012.53
2023-03-06T22:13:39.748Z,98004.03
2023-03-06T22:16:07.473Z,98009.16
2023-03-06T22:18:35.214Z,98007.50
2023-03-06T22:21:08.379Z,98010.19
2023-03-06T22:23:35.234Z,98004.13
2023-03-06T22:26:06.420Z,98010.84
2023-03-06T22:28:33.468Z,98006.63
2023-03-06T22:31:06.757Z,97995.69
2023-03-06T22:33:33.623Z,97998.22
2023-03-06T22:36:05.311Z,98002.50
2023-03-06T22:38:32.790Z,97999.16
2023-03-06T22:40:59.569Z,97994.75
2023-03-06T22:43:26.402Z,98003.09
2023-03-06T22:45:53.264Z,97999.69
2023-03-06T22:48:20.880Z,97994.63
2023-03-06T22:50:47.707Z,97998.75
2023-03-06T22:53:14.559Z,97998.75
2023-03-06T22:55:41.606Z,97996.16
2023-03-06T22:58:08.366Z,97992.84
2023-03-06T23:00:35.128Z,97995.41
2023-03-06T23:03:02.196Z,97997.84
2023-03-06T23:05:29.786Z,97997.03
2023-03-06T23:07:56.683Z,97988.47
2023-03-06T23:10:24.212Z,98002.03
2023-03-06T23:12:51.023Z,97993.53
2023-03-06T23:15:17.925Z,97996.97
2023-03-06T23:17:44.936Z,98000.28
2023-03-06T23:20:13.333Z,97982.66
2023-03-06T23:22:40.213Z,97987.72
2023-03-06T23:25:07.347Z,97992.88
2023-03-06T23:27:36.141Z,97983.69
2023-03-06T23:30:08.999Z,97985.44
2023-03-06T23:32:35.885Z,97988.75
2023-03-06T23:35:02.649Z,97993.81
2023-03-06T23:37:31.017Z,97993.78
2023-03-06T23:39:57.774Z,97984.63
2023-03-06T23:42:24.929Z,97980.47
2023-03-06T23:44:51.808Z,97987.25
2023-03-06T23:47:20.114Z,97978.84
2023-03-06T23:49:46.938Z,97984.78
2023-03-06T23:52:13.744Z,97977.09
2023-03-06T23:54:40.616Z,97994.09
2023-03-06T23:57:07.552Z,97985.66
2023-03-06T23:59:34.341Z,97983.13
